Rejestracja

Wszystkie dane podawane są w czasie UTC za wyjątkiem miejsc gdzie jest jednoznacznie podane, że jest inaczej. Dane podawane w serwisie mają charakter informacyjny!!!
Informacje w sprawie dostępu do serwisu pod numerem tel. +48 261-828-138
Informacja dla żołnierzy i pracowników wojska: Prosimy o niezwłoczną zmianę adresu e-mail w profilu użytkownika na pocztę w domenie @ron.mil.pl

Aktualna Pogoda
 
Pogoda w Polsce
9°C Szczecin 10°C Suwałki 10°C Warszawa 9°C Poznan
11°C Opole 10°C Kraków 9°C Rzeszów
Więcej miast w Polsce

Pogoda w Europie
8°C Berlin 12°C Paryz 10°C Bruksela 10°C Oslo
10°C Praga 10°C Zagrzeb
Więcej miast w Europie

Metary wojskowe test
METAR EPCE 260400Z 36006KT 330V040 9999 OVC006 08/07 Q1032 RMK 077 092 8/8=
METAR EPDA 260400Z 01004KT 300V040 9999 BKN009 09/07 Q1033 RMK 093 088 7/7=
METAR EPDE 260400Z 30004KT 9999 BKN100 10/08 Q1027 RMK 095 093 7/7=
METAR EPIR 260400Z 36008KT 9999 BKN011 10/06 Q1030 RMK 095 079 7/7=
METAR EPKS 260400Z 35008KT 9999 FEW009 BKN018 10/10 Q1031 RMK 096 100 6/2=
METAR EPLK 260400Z 06004KT 330V040 5000 BR OVC004 10/10 Q1028 RMK 097 100 8/8=
METAR EPLY 260400Z 02004KT 8000 OVC006 10/09 Q1029 RMK 096 094 8/8=
METAR EPMB 260330Z 03008KT 360V060 9999 OVC011 09/07 Q1031 RMK 090 087 8/8=
METAR EPMI 260400Z 01006KT 340V040 9999 SCT011 09/07 Q1032 RMK 085 088 3/3=
METAR EPMM 260400Z 01004KT 9999 BKN076 09/09 Q1027 RMK 085 100 7/7=
METAR EPOK 260400Z 34009KT 9999 OVC009 09/07 Q1032 RMK 089 089 8/8=
METAR EPPR 260400Z 34008KT 9999 SCT009 OVC011 09/06 Q1032 RMK 087 084 8/4=
METAR EPPW 260400Z 02006KT 9999 BKN013 10/08 Q1030 RMK 099 090 7/7=
METAR EPSN 260400Z 01006KT 320V080 9999 OVC008 08/07 Q1032 RMK 081 095 8/8=
METAR EPTM 260400Z 33008KT 8000 OVC005 10/09 Q1028 RMK 097 093 8/8=


 

Prawa autorskie©2007 SSH SZ RP. Wszelkie prawa zastrzeżone.